sensor_id;sensor_type;location;lat;lon;timestamp;temperature;humidity
74081;SHT31;62438;52.228;6.864;2022-11-25T00:03:05;6.99;91.57
74081;SHT31;62438;52.228;6.864;2022-11-25T00:05:06;7.12;91.64
74081;SHT31;62438;52.228;6.864;2022-11-25T00:07:06;7.12;91.37
74081;SHT31;62438;52.228;6.864;2022-11-25T00:09:09;7.10;91.61
74081;SHT31;62438;52.228;6.864;2022-11-25T00:11:11;7.17;91.13
74081;SHT31;62438;52.228;6.864;2022-11-25T00:13:12;7.19;91.46
74081;SHT31;62438;52.228;6.864;2022-11-25T00:15:12;7.17;91.35
74081;SHT31;62438;52.228;6.864;2022-11-25T00:17:13;7.27;91.17
74081;SHT31;62438;52.228;6.864;2022-11-25T00:19:13;7.28;91.55
74081;SHT31;62438;52.228;6.864;2022-11-25T00:21:16;7.30;91.15
74081;SHT31;62438;52.228;6.864;2022-11-25T00:23:17;7.40;90.58
74081;SHT31;62438;52.228;6.864;2022-11-25T00:25:17;7.44;90.56
74081;SHT31;62438;52.228;6.864;2022-11-25T00:27:17;7.36;91.34
74081;SHT31;62438;52.228;6.864;2022-11-25T00:29:18;7.40;90.80
74081;SHT31;62438;52.228;6.864;2022-11-25T00:31:27;7.46;90.48
74081;SHT31;62438;52.228;6.864;2022-11-25T00:33:27;7.48;91.19
74081;SHT31;62438;52.228;6.864;2022-11-25T00:35:28;7.44;91.28
74081;SHT31;62438;52.228;6.864;2022-11-25T00:37:28;7.44;91.16
74081;SHT31;62438;52.228;6.864;2022-11-25T00:39:30;7.47;90.85
74081;SHT31;62438;52.228;6.864;2022-11-25T00:41:31;7.48;90.90
74081;SHT31;62438;52.228;6.864;2022-11-25T00:43:50;7.53;90.80
74081;SHT31;62438;52.228;6.864;2022-11-25T00:46:09;7.58;90.62
74081;SHT31;62438;52.228;6.864;2022-11-25T00:48:09;7.60;90.57
74081;SHT31;62438;52.228;6.864;2022-11-25T00:50:09;7.58;91.10
74081;SHT31;62438;52.228;6.864;2022-11-25T00:52:13;7.67;90.55
74081;SHT31;62438;52.228;6.864;2022-11-25T00:54:14;7.73;90.08
74081;SHT31;62438;52.228;6.864;2022-11-25T00:56:14;7.67;90.63
74081;SHT31;62438;52.228;6.864;2022-11-25T00:58:15;7.71;90.05
74081;SHT31;62438;52.228;6.864;2022-11-25T01:00:16;7.73;90.21
74081;SHT31;62438;52.228;6.864;2022-11-25T01:02:17;7.74;90.44
74081;SHT31;62438;52.228;6.864;2022-11-25T01:04:18;7.78;90.46
74081;SHT31;62438;52.228;6.864;2022-11-25T01:06:18;7.75;91.56
74081;SHT31;62438;52.228;6.864;2022-11-25T01:08:19;7.70;92.44
74081;SHT31;62438;52.228;6.864;2022-11-25T01:10:19;7.71;92.34
74081;SHT31;62438;52.228;6.864;2022-11-25T01:12:19;7.70;93.09
74081;SHT31;62438;52.228;6.864;2022-11-25T01:14:20;7.67;92.76
74081;SHT31;62438;52.228;6.864;2022-11-25T01:16:21;7.63;93.18
74081;SHT31;62438;52.228;6.864;2022-11-25T01:18:22;7.63;93.49
74081;SHT31;62438;52.228;6.864;2022-11-25T01:20:22;7.68;93.16
74081;SHT31;62438;52.228;6.864;2022-11-25T01:22:23;7.68;92.97
74081;SHT31;62438;52.228;6.864;2022-11-25T01:24:23;7.64;93.44
74081;SHT31;62438;52.228;6.864;2022-11-25T01:26:26;7.65;94.04
74081;SHT31;62438;52.228;6.864;2022-11-25T01:28:27;7.74;92.79
74081;SHT31;62438;52.228;6.864;2022-11-25T01:30:27;7.79;92.53
74081;SHT31;62438;52.228;6.864;2022-11-25T01:32:27;7.70;93.88
74081;SHT31;62438;52.228;6.864;2022-11-25T01:34:28;7.70;94.24
74081;SHT31;62438;52.228;6.864;2022-11-25T01:36:31;7.64;94.72
74081;SHT31;62438;52.228;6.864;2022-11-25T01:38:32;7.63;94.74
74081;SHT31;62438;52.228;6.864;2022-11-25T01:40:32;7.64;94.30
74081;SHT31;62438;52.228;6.864;2022-11-25T01:42:32;7.64;94.68
74081;SHT31;62438;52.228;6.864;2022-11-25T01:44:34;7.64;94.14
74081;SHT31;62438;52.228;6.864;2022-11-25T01:46:54;7.61;94.67
74081;SHT31;62438;52.228;6.864;2022-11-25T01:49:00;7.70;94.30
74081;SHT31;62438;52.228;6.864;2022-11-25T01:51:02;7.71;94.33
74081;SHT31;62438;52.228;6.864;2022-11-25T01:53:04;7.71;93.58
74081;SHT31;62438;52.228;6.864;2022-11-25T01:55:16;7.78;93.82
74081;SHT31;62438;52.228;6.864;2022-11-25T01:57:23;7.75;93.96
74081;SHT31;62438;52.228;6.864;2022-11-25T01:59:25;7.73;94.17
74081;SHT31;62438;52.228;6.864;2022-11-25T02:01:26;7.68;94.84
74081;SHT31;62438;52.228;6.864;2022-11-25T02:03:39;7.70;94.10
74081;SHT31;62438;52.228;6.864;2022-11-25T02:05:59;7.67;94.72
74081;SHT31;62438;52.228;6.864;2022-11-25T02:08:03;7.73;94.07
74081;SHT31;62438;52.228;6.864;2022-11-25T02:10:08;7.68;94.74
74081;SHT31;62438;52.228;6.864;2022-11-25T02:12:10;7.75;93.70
74081;SHT31;62438;52.228;6.864;2022-11-25T02:14:12;7.81;93.42
74081;SHT31;62438;52.228;6.864;2022-11-25T02:16:13;7.74;93.92
74081;SHT31;62438;52.228;6.864;2022-11-25T02:18:14;7.68;94.35
74081;SHT31;62438;52.228;6.864;2022-11-25T02:20:20;7.78;93.13
74081;SHT31;62438;52.228;6.864;2022-11-25T02:22:26;7.79;93.66
74081;SHT31;62438;52.228;6.864;2022-11-25T02:25:00;7.73;94.66
74081;SHT31;62438;52.228;6.864;2022-11-25T02:27:02;7.74;94.80
74081;SHT31;62438;52.228;6.864;2022-11-25T02:29:03;7.75;94.31
74081;SHT31;62438;52.228;6.864;2022-11-25T02:31:06;7.77;93.94
74081;SHT31;62438;52.228;6.864;2022-11-25T02:33:06;7.84;94.19
74081;SHT31;62438;52.228;6.864;2022-11-25T02:37:28;7.82;94.73
74081;SHT31;62438;52.228;6.864;2022-11-25T02:39:29;7.78;95.30
74081;SHT31;62438;52.228;6.864;2022-11-25T02:41:31;7.79;94.64
74081;SHT31;62438;52.228;6.864;2022-11-25T02:43:32;7.78;95.15
74081;SHT31;62438;52.228;6.864;2022-11-25T02:46:03;7.82;94.86
74081;SHT31;62438;52.228;6.864;2022-11-25T02:48:04;7.86;94.83
74081;SHT31;62438;52.228;6.864;2022-11-25T02:50:05;7.85;94.73
74081;SHT31;62438;52.228;6.864;2022-11-25T02:52:05;7.85;94.74
74081;SHT31;62438;52.228;6.864;2022-11-25T02:54:06;7.85;95.12
74081;SHT31;62438;52.228;6.864;2022-11-25T02:56:08;7.89;94.68
74081;SHT31;62438;52.228;6.864;2022-11-25T02:58:09;7.84;94.88
74081;SHT31;62438;52.228;6.864;2022-11-25T03:00:10;7.85;94.96
74081;SHT31;62438;52.228;6.864;2022-11-25T03:02:11;7.89;94.22
74081;SHT31;62438;52.228;6.864;2022-11-25T03:04:11;7.92;94.63
74081;SHT31;62438;52.228;6.864;2022-11-25T03:06:12;7.94;94.59
74081;SHT31;62438;52.228;6.864;2022-11-25T03:08:12;7.91;94.62
74081;SHT31;62438;52.228;6.864;2022-11-25T03:10:13;7.92;94.83
74081;SHT31;62438;52.228;6.864;2022-11-25T03:12:13;7.99;94.31
74081;SHT31;62438;52.228;6.864;2022-11-25T03:14:19;7.98;94.88
74081;SHT31;62438;52.228;6.864;2022-11-25T03:16:20;8.01;94.50
74081;SHT31;62438;52.228;6.864;2022-11-25T03:18:20;8.02;94.76
74081;SHT31;62438;52.228;6.864;2022-11-25T03:20:21;8.02;95.10
74081;SHT31;62438;52.228;6.864;2022-11-25T03:22:21;8.05;95.01
74081;SHT31;62438;52.228;6.864;2022-11-25T03:24:22;8.10;94.71
74081;SHT31;62438;52.228;6.864;2022-11-25T03:26:22;8.02;95.82
74081;SHT31;62438;52.228;6.864;2022-11-25T03:28:25;8.06;95.43
74081;SHT31;62438;52.228;6.864;2022-11-25T03:30:26;7.96;95.96
74081;SHT31;62438;52.228;6.864;2022-11-25T03:32:26;7.94;96.58
74081;SHT31;62438;52.228;6.864;2022-11-25T03:34:27;7.91;96.70
74081;SHT31;62438;52.228;6.864;2022-11-25T03:36:27;7.92;96.77
74081;SHT31;62438;52.228;6.864;2022-11-25T03:38:28;7.91;97.11
74081;SHT31;62438;52.228;6.864;2022-11-25T03:40:28;7.89;97.07
74081;SHT31;62438;52.228;6.864;2022-11-25T03:42:28;7.92;96.79
74081;SHT31;62438;52.228;6.864;2022-11-25T03:44:29;7.92;96.95
74081;SHT31;62438;52.228;6.864;2022-11-25T03:46:29;7.96;96.93
74081;SHT31;62438;52.228;6.864;2022-11-25T03:48:30;7.99;96.70
74081;SHT31;62438;52.228;6.864;2022-11-25T03:50:30;7.99;96.93
74081;SHT31;62438;52.228;6.864;2022-11-25T03:52:31;7.95;97.47
74081;SHT31;62438;52.228;6.864;2022-11-25T03:54:31;7.98;97.54
74081;SHT31;62438;52.228;6.864;2022-11-25T03:56:32;7.95;97.89
74081;SHT31;62438;52.228;6.864;2022-11-25T03:58:32;7.95;97.86
74081;SHT31;62438;52.228;6.864;2022-11-25T04:00:32;7.99;97.73
74081;SHT31;62438;52.228;6.864;2022-11-25T04:02:33;8.09;97.11
74081;SHT31;62438;52.228;6.864;2022-11-25T04:04:33;8.06;97.87
74081;SHT31;62438;52.228;6.864;2022-11-25T04:06:34;8.09;97.44
74081;SHT31;62438;52.228;6.864;2022-11-25T04:08:34;8.15;97.65
74081;SHT31;62438;52.228;6.864;2022-11-25T04:10:34;8.21;97.41
74081;SHT31;62438;52.228;6.864;2022-11-25T04:12:35;8.26;97.02
74081;SHT31;62438;52.228;6.864;2022-11-25T04:14:47;8.21;97.81
74081;SHT31;62438;52.228;6.864;2022-11-25T04:16:48;8.25;97.75
74081;SHT31;62438;52.228;6.864;2022-11-25T04:18:48;8.26;97.41
74081;SHT31;62438;52.228;6.864;2022-11-25T04:20:48;8.35;97.10
74081;SHT31;62438;52.228;6.864;2022-11-25T04:22:49;8.37;97.24
74081;SHT31;62438;52.228;6.864;2022-11-25T04:24:49;8.32;97.59
74081;SHT31;62438;52.228;6.864;2022-11-25T04:26:50;8.35;97.50
74081;SHT31;62438;52.228;6.864;2022-11-25T04:28:50;8.33;97.48
74081;SHT31;62438;52.228;6.864;2022-11-25T04:30:50;8.35;97.54
74081;SHT31;62438;52.228;6.864;2022-11-25T04:32:51;8.33;97.61
74081;SHT31;62438;52.228;6.864;2022-11-25T04:34:51;8.33;97.70
74081;SHT31;62438;52.228;6.864;2022-11-25T04:36:52;8.42;97.65
74081;SHT31;62438;52.228;6.864;2022-11-25T04:38:52;8.42;97.55
74081;SHT31;62438;52.228;6.864;2022-11-25T04:40:52;8.43;97.42
74081;SHT31;62438;52.228;6.864;2022-11-25T04:42:53;8.42;97.56
74081;SHT31;62438;52.228;6.864;2022-11-25T04:44:53;8.40;97.80
74081;SHT31;62438;52.228;6.864;2022-11-25T04:46:54;8.44;97.93
74081;SHT31;62438;52.228;6.864;2022-11-25T04:48:54;8.44;97.83
74081;SHT31;62438;52.228;6.864;2022-11-25T04:50:55;8.40;98.02
74081;SHT31;62438;52.228;6.864;2022-11-25T04:52:55;8.37;98.22
74081;SHT31;62438;52.228;6.864;2022-11-25T04:54:55;8.39;98.29
74081;SHT31;62438;52.228;6.864;2022-11-25T04:56:56;8.42;98.38
74081;SHT31;62438;52.228;6.864;2022-11-25T04:58:56;8.42;98.19
74081;SHT31;62438;52.228;6.864;2022-11-25T05:01:15;8.36;98.55
74081;SHT31;62438;52.228;6.864;2022-11-25T05:03:16;8.36;98.75
74081;SHT31;62438;52.228;6.864;2022-11-25T05:05:16;8.30;98.88
74081;SHT31;62438;52.228;6.864;2022-11-25T05:07:18;8.29;99.11
74081;SHT31;62438;52.228;6.864;2022-11-25T05:09:19;8.30;98.89
74081;SHT31;62438;52.228;6.864;2022-11-25T05:11:19;8.32;98.93
74081;SHT31;62438;52.228;6.864;2022-11-25T05:13:19;8.36;98.74
74081;SHT31;62438;52.228;6.864;2022-11-25T05:15:20;8.33;98.78
74081;SHT31;62438;52.228;6.864;2022-11-25T05:17:23;8.36;98.79
74081;SHT31;62438;52.228;6.864;2022-11-25T05:19:24;8.35;98.72
74081;SHT31;62438;52.228;6.864;2022-11-25T05:21:24;8.36;98.65
74081;SHT31;62438;52.228;6.864;2022-11-25T05:23:24;8.36;98.84
74081;SHT31;62438;52.228;6.864;2022-11-25T05:25:25;8.33;98.77
74081;SHT31;62438;52.228;6.864;2022-11-25T05:27:26;8.36;98.90
74081;SHT31;62438;52.228;6.864;2022-11-25T05:29:26;8.32;98.98
74081;SHT31;62438;52.228;6.864;2022-11-25T05:31:27;8.32;99.01
74081;SHT31;62438;52.228;6.864;2022-11-25T05:33:27;8.35;98.95
74081;SHT31;62438;52.228;6.864;2022-11-25T05:35:28;8.35;98.93
74081;SHT31;62438;52.228;6.864;2022-11-25T05:37:28;8.30;99.18
74081;SHT31;62438;52.228;6.864;2022-11-25T05:39:28;8.28;99.35
74081;SHT31;62438;52.228;6.864;2022-11-25T05:41:29;8.25;99.39
74081;SHT31;62438;52.228;6.864;2022-11-25T05:43:29;8.28;99.39
74081;SHT31;62438;52.228;6.864;2022-11-25T05:45:30;8.32;99.26
74081;SHT31;62438;52.228;6.864;2022-11-25T05:47:30;8.29;99.28
74081;SHT31;62438;52.228;6.864;2022-11-25T05:49:30;8.26;99.46
74081;SHT31;62438;52.228;6.864;2022-11-25T05:51:31;8.22;99.59
74081;SHT31;62438;52.228;6.864;2022-11-25T05:53:31;8.23;99.68
74081;SHT31;62438;52.228;6.864;2022-11-25T05:55:32;8.26;99.65
74081;SHT31;62438;52.228;6.864;2022-11-25T05:57:32;8.28;99.56
74081;SHT31;62438;52.228;6.864;2022-11-25T05:59:32;8.26;99.54
74081;SHT31;62438;52.228;6.864;2022-11-25T06:01:33;8.28;99.42
74081;SHT31;62438;52.228;6.864;2022-11-25T06:03:33;8.29;99.27
74081;SHT31;62438;52.228;6.864;2022-11-25T06:05:34;8.29;99.31
74081;SHT31;62438;52.228;6.864;2022-11-25T06:07:34;8.28;99.33
74081;SHT31;62438;52.228;6.864;2022-11-25T06:09:35;8.30;99.26
74081;SHT31;62438;52.228;6.864;2022-11-25T06:11:35;8.28;99.18
74081;SHT31;62438;52.228;6.864;2022-11-25T06:13:36;8.28;99.28
74081;SHT31;62438;52.228;6.864;2022-11-25T06:15:41;8.29;99.19
74081;SHT31;62438;52.228;6.864;2022-11-25T06:17:41;8.29;99.23
74081;SHT31;62438;52.228;6.864;2022-11-25T06:19:42;8.29;99.03
74081;SHT31;62438;52.228;6.864;2022-11-25T06:21:42;8.36;98.92
74081;SHT31;62438;52.228;6.864;2022-11-25T06:23:43;8.33;99.13
74081;SHT31;62438;52.228;6.864;2022-11-25T06:25:46;8.32;99.00
74081;SHT31;62438;52.228;6.864;2022-11-25T06:27:46;8.33;98.89
74081;SHT31;62438;52.228;6.864;2022-11-25T06:29:47;8.37;98.85
74081;SHT31;62438;52.228;6.864;2022-11-25T06:31:50;8.33;99.02
74081;SHT31;62438;52.228;6.864;2022-11-25T06:33:51;8.35;98.89
74081;SHT31;62438;52.228;6.864;2022-11-25T06:35:52;8.32;99.00
74081;SHT31;62438;52.228;6.864;2022-11-25T06:37:52;8.33;98.91
74081;SHT31;62438;52.228;6.864;2022-11-25T06:39:52;8.33;98.98
74081;SHT31;62438;52.228;6.864;2022-11-25T06:41:53;8.29;99.10
74081;SHT31;62438;52.228;6.864;2022-11-25T06:43:53;8.26;99.18
74081;SHT31;62438;52.228;6.864;2022-11-25T06:45:54;8.26;99.08
74081;SHT31;62438;52.228;6.864;2022-11-25T06:47:54;8.26;99.13
74081;SHT31;62438;52.228;6.864;2022-11-25T06:49:54;8.22;99.17
74081;SHT31;62438;52.228;6.864;2022-11-25T06:51:55;8.26;98.97
74081;SHT31;62438;52.228;6.864;2022-11-25T06:53:55;8.22;99.13
74081;SHT31;62438;52.228;6.864;2022-11-25T06:58:06;8.25;99.19
74081;SHT31;62438;52.228;6.864;2022-11-25T07:00:07;8.28;99.21
74081;SHT31;62438;52.228;6.864;2022-11-25T07:02:08;8.29;99.05
74081;SHT31;62438;52.228;6.864;2022-11-25T07:04:12;8.30;99.15
74081;SHT31;62438;52.228;6.864;2022-11-25T07:06:14;8.26;99.46
74081;SHT31;62438;52.228;6.864;2022-11-25T07:08:15;8.25;99.63
74081;SHT31;62438;52.228;6.864;2022-11-25T07:10:15;8.26;99.86
74081;SHT31;62438;52.228;6.864;2022-11-25T07:12:16;8.23;99.91
74081;SHT31;62438;52.228;6.864;2022-11-25T07:14:17;8.29;99.88
74081;SHT31;62438;52.228;6.864;2022-11-25T07:16:18;8.28;99.83
74081;SHT31;62438;52.228;6.864;2022-11-25T07:18:18;8.29;99.99
74081;SHT31;62438;52.228;6.864;2022-11-25T07:20:19;8.28;99.99
74081;SHT31;62438;52.228;6.864;2022-11-25T07:22:19;8.28;99.99
74081;SHT31;62438;52.228;6.864;2022-11-25T07:24:20;8.25;99.93
74081;SHT31;62438;52.228;6.864;2022-11-25T07:26:21;8.29;99.84
74081;SHT31;62438;52.228;6.864;2022-11-25T07:28:22;8.29;99.99
74081;SHT31;62438;52.228;6.864;2022-11-25T07:30:22;8.28;99.99
74081;SHT31;62438;52.228;6.864;2022-11-25T07:32:22;8.29;99.81
74081;SHT31;62438;52.228;6.864;2022-11-25T07:34:23;8.33;99.89
74081;SHT31;62438;52.228;6.864;2022-11-25T07:36:24;8.33;99.68
74081;SHT31;62438;52.228;6.864;2022-11-25T07:38:26;8.30;99.62
74081;SHT31;62438;52.228;6.864;2022-11-25T07:40:27;8.37;99.36
74081;SHT31;62438;52.228;6.864;2022-11-25T07:42:27;8.33;99.50
74081;SHT31;62438;52.228;6.864;2022-11-25T07:44:27;8.37;99.27
74081;SHT31;62438;52.228;6.864;2022-11-25T07:46:41;8.39;99.09
74081;SHT31;62438;52.228;6.864;2022-11-25T07:48:42;8.37;99.25
74081;SHT31;62438;52.228;6.864;2022-11-25T07:50:43;8.39;98.99
74081;SHT31;62438;52.228;6.864;2022-11-25T07:52:45;8.35;99.22
74081;SHT31;62438;52.228;6.864;2022-11-25T07:54:45;8.40;99.04
74081;SHT31;62438;52.228;6.864;2022-11-25T07:56:45;8.43;98.97
74081;SHT31;62438;52.228;6.864;2022-11-25T07:58:48;8.43;98.88
74081;SHT31;62438;52.228;6.864;2022-11-25T08:00:48;8.42;98.61
74081;SHT31;62438;52.228;6.864;2022-11-25T08:02:48;8.42;98.79
74081;SHT31;62438;52.228;6.864;2022-11-25T08:04:49;8.46;98.53
74081;SHT31;62438;52.228;6.864;2022-11-25T08:06:50;8.44;98.93
74081;SHT31;62438;52.228;6.864;2022-11-25T08:08:52;8.44;98.68
74081;SHT31;62438;52.228;6.864;2022-11-25T08:10:54;8.50;98.35
74081;SHT31;62438;52.228;6.864;2022-11-25T08:12:55;8.46;98.22
74081;SHT31;62438;52.228;6.864;2022-11-25T08:14:55;8.50;98.18
74081;SHT31;62438;52.228;6.864;2022-11-25T08:16:55;8.50;98.28
74081;SHT31;62438;52.228;6.864;2022-11-25T08:19:01;8.49;98.59
74081;SHT31;62438;52.228;6.864;2022-11-25T08:21:04;8.49;98.54
74081;SHT31;62438;52.228;6.864;2022-11-25T08:23:05;8.47;98.34
74081;SHT31;62438;52.228;6.864;2022-11-25T08:25:06;8.40;98.76
74081;SHT31;62438;52.228;6.864;2022-11-25T08:27:06;8.37;98.51
74081;SHT31;62438;52.228;6.864;2022-11-25T08:29:06;8.37;98.63
74081;SHT31;62438;52.228;6.864;2022-11-25T08:31:14;8.37;98.47
74081;SHT31;62438;52.228;6.864;2022-11-25T08:33:15;8.40;98.63
74081;SHT31;62438;52.228;6.864;2022-11-25T08:35:16;8.43;98.40
74081;SHT31;62438;52.228;6.864;2022-11-25T08:37:16;8.40;98.44
74081;SHT31;62438;52.228;6.864;2022-11-25T08:39:18;8.35;98.56
74081;SHT31;62438;52.228;6.864;2022-11-25T08:41:27;8.33;98.82
74081;SHT31;62438;52.228;6.864;2022-11-25T08:43:28;8.36;98.94
74081;SHT31;62438;52.228;6.864;2022-11-25T08:45:29;8.39;98.56
74081;SHT31;62438;52.228;6.864;2022-11-25T08:47:30;8.42;98.66
74081;SHT31;62438;52.228;6.864;2022-11-25T08:49:30;8.44;98.26
74081;SHT31;62438;52.228;6.864;2022-11-25T08:51:33;8.46;98.20
74081;SHT31;62438;52.228;6.864;2022-11-25T08:53:33;8.42;98.48
74081;SHT31;62438;52.228;6.864;2022-11-25T08:55:34;8.46;98.51
74081;SHT31;62438;52.228;6.864;2022-11-25T08:57:36;8.46;98.40
74081;SHT31;62438;52.228;6.864;2022-11-25T08:59:37;8.50;98.45
74081;SHT31;62438;52.228;6.864;2022-11-25T09:01:38;8.50;98.20
74081;SHT31;62438;52.228;6.864;2022-11-25T09:03:42;8.53;98.26
74081;SHT31;62438;52.228;6.864;2022-11-25T09:05:43;8.60;98.12
74081;SHT31;62438;52.228;6.864;2022-11-25T09:07:43;8.56;97.97
74081;SHT31;62438;52.228;6.864;2022-11-25T09:09:44;8.63;97.99
74081;SHT31;62438;52.228;6.864;2022-11-25T09:11:44;8.61;97.77
74081;SHT31;62438;52.228;6.864;2022-11-25T09:13:46;8.68;97.50
74081;SHT31;62438;52.228;6.864;2022-11-25T09:15:48;8.71;97.57
74081;SHT31;62438;52.228;6.864;2022-11-25T09:17:48;8.73;97.78
74081;SHT31;62438;52.228;6.864;2022-11-25T09:19:56;8.75;97.12
74081;SHT31;62438;52.228;6.864;2022-11-25T09:21:56;8.78;97.38
74081;SHT31;62438;52.228;6.864;2022-11-25T09:23:57;8.80;97.43
74081;SHT31;62438;52.228;6.864;2022-11-25T09:25:57;8.85;97.19
74081;SHT31;62438;52.228;6.864;2022-11-25T09:27:58;8.84;97.37
74081;SHT31;62438;52.228;6.864;2022-11-25T09:29:58;8.89;97.10
74081;SHT31;62438;52.228;6.864;2022-11-25T09:31:59;8.92;97.16
74081;SHT31;62438;52.228;6.864;2022-11-25T09:33:59;8.95;96.82
74081;SHT31;62438;52.228;6.864;2022-11-25T09:36:00;8.94;97.09
74081;SHT31;62438;52.228;6.864;2022-11-25T09:38:01;8.98;96.71
74081;SHT31;62438;52.228;6.864;2022-11-25T09:40:01;9.02;96.15
74081;SHT31;62438;52.228;6.864;2022-11-25T09:47:26;9.07;95.92
74081;SHT31;62438;52.228;6.864;2022-11-25T09:52:15;9.12;94.77
74081;SHT31;62438;52.228;6.864;2022-11-25T09:54:29;9.12;95.29
74081;SHT31;62438;52.228;6.864;2022-11-25T09:56:36;9.14;94.52
74081;SHT31;62438;52.228;6.864;2022-11-25T09:59:11;9.26;94.60
74081;SHT31;62438;52.228;6.864;2022-11-25T10:01:18;9.28;94.40
74081;SHT31;62438;52.228;6.864;2022-11-25T10:03:42;9.33;93.88
74081;SHT31;62438;52.228;6.864;2022-11-25T10:06:05;9.32;93.99
74081;SHT31;62438;52.228;6.864;2022-11-25T10:08:41;9.35;93.84
74081;SHT31;62438;52.228;6.864;2022-11-25T10:12:48;9.47;93.72
74081;SHT31;62438;52.228;6.864;2022-11-25T10:15:20;9.52;92.34
74081;SHT31;62438;52.228;6.864;2022-11-25T10:21:40;9.53;92.44
74081;SHT31;62438;52.228;6.864;2022-11-25T10:23:40;9.54;91.76
74081;SHT31;62438;52.228;6.864;2022-11-25T10:25:45;9.60;91.74
74081;SHT31;62438;52.228;6.864;2022-11-25T10:30:02;9.64;91.70
74081;SHT31;62438;52.228;6.864;2022-11-25T10:32:23;9.67;91.00
74081;SHT31;62438;52.228;6.864;2022-11-25T10:34:47;9.74;91.32
74081;SHT31;62438;52.228;6.864;2022-11-25T10:36:50;9.79;90.69
74081;SHT31;62438;52.228;6.864;2022-11-25T10:39:06;9.83;91.02
74081;SHT31;62438;52.228;6.864;2022-11-25T10:41:14;9.86;90.75
74081;SHT31;62438;52.228;6.864;2022-11-25T10:43:16;9.91;90.66
74081;SHT31;62438;52.228;6.864;2022-11-25T10:45:22;9.93;90.81
74081;SHT31;62438;52.228;6.864;2022-11-25T10:51:56;10.25;89.67
74081;SHT31;62438;52.228;6.864;2022-11-25T10:56:17;10.46;88.52
74081;SHT31;62438;52.228;6.864;2022-11-25T10:58:43;10.60;87.02
74081;SHT31;62438;52.228;6.864;2022-11-25T11:00:44;10.55;88.17
74081;SHT31;62438;52.228;6.864;2022-11-25T11:02:44;10.59;87.54
74081;SHT31;62438;52.228;6.864;2022-11-25T11:04:56;10.55;87.46
74081;SHT31;62438;52.228;6.864;2022-11-25T11:07:06;10.70;86.69
74081;SHT31;62438;52.228;6.864;2022-11-25T11:11:33;10.79;86.17
74081;SHT31;62438;52.228;6.864;2022-11-25T11:13:46;10.89;86.68
74081;SHT31;62438;52.228;6.864;2022-11-25T11:15:47;11.16;85.11
74081;SHT31;62438;52.228;6.864;2022-11-25T11:17:48;10.93;86.07
74081;SHT31;62438;52.228;6.864;2022-11-25T11:20:00;10.83;86.30
74081;SHT31;62438;52.228;6.864;2022-11-25T11:22:15;10.81;86.59
74081;SHT31;62438;52.228;6.864;2022-11-25T11:24:26;10.99;86.21
74081;SHT31;62438;52.228;6.864;2022-11-25T11:26:30;11.11;85.85
74081;SHT31;62438;52.228;6.864;2022-11-25T11:30:36;11.35;85.36
74081;SHT31;62438;52.228;6.864;2022-11-25T11:32:39;11.17;85.66
74081;SHT31;62438;52.228;6.864;2022-11-25T11:35:05;11.28;84.70
74081;SHT31;62438;52.228;6.864;2022-11-25T12:00:22;10.83;86.96
74081;SHT31;62438;52.228;6.864;2022-11-25T12:04:54;10.84;86.22
74081;SHT31;62438;52.228;6.864;2022-11-25T12:07:06;10.63;87.04
74081;SHT31;62438;52.228;6.864;2022-11-25T12:09:13;10.72;86.70
74081;SHT31;62438;52.228;6.864;2022-11-25T12:11:21;10.73;86.98
74081;SHT31;62438;52.228;6.864;2022-11-25T12:13:48;10.70;86.84
74081;SHT31;62438;52.228;6.864;2022-11-25T12:15:55;10.68;86.95
74081;SHT31;62438;52.228;6.864;2022-11-25T12:18:01;10.60;86.78
74081;SHT31;62438;52.228;6.864;2022-11-25T12:20:21;10.59;87.34
74081;SHT31;62438;52.228;6.864;2022-11-25T12:22:31;10.62;87.94
74081;SHT31;62438;52.228;6.864;2022-11-25T12:24:50;10.83;86.65
74081;SHT31;62438;52.228;6.864;2022-11-25T12:29:05;10.99;85.70
74081;SHT31;62438;52.228;6.864;2022-11-25T12:31:11;11.06;85.67
74081;SHT31;62438;52.228;6.864;2022-11-25T12:33:19;11.14;85.52
74081;SHT31;62438;52.228;6.864;2022-11-25T12:37:41;11.34;85.07
74081;SHT31;62438;52.228;6.864;2022-11-25T12:42:21;11.37;85.09
74081;SHT31;62438;52.228;6.864;2022-11-25T12:46:37;11.21;85.32
74081;SHT31;62438;52.228;6.864;2022-11-25T12:48:40;11.16;84.78
74081;SHT31;62438;52.228;6.864;2022-11-25T12:53:17;11.23;84.70
74081;SHT31;62438;52.228;6.864;2022-11-25T12:55:23;11.27;84.07
74081;SHT31;62438;52.228;6.864;2022-11-25T13:04:37;11.52;83.43
74081;SHT31;62438;52.228;6.864;2022-11-25T13:13:27;11.34;83.91
74081;SHT31;62438;52.228;6.864;2022-11-25T13:15:31;11.28;83.56
74081;SHT31;62438;52.228;6.864;2022-11-25T13:17:39;11.20;83.57
74081;SHT31;62438;52.228;6.864;2022-11-25T13:19:41;11.16;84.48
74081;SHT31;62438;52.228;6.864;2022-11-25T13:21:58;11.14;84.65
74081;SHT31;62438;52.228;6.864;2022-11-25T13:23:59;11.10;84.53
74081;SHT31;62438;52.228;6.864;2022-11-25T13:28:31;11.17;85.31
74081;SHT31;62438;52.228;6.864;2022-11-25T13:32:35;11.10;84.79
74081;SHT31;62438;52.228;6.864;2022-11-25T13:34:35;11.07;85.06
74081;SHT31;62438;52.228;6.864;2022-11-25T13:36:45;11.00;84.57
74081;SHT31;62438;52.228;6.864;2022-11-25T13:41:41;10.97;85.73
74081;SHT31;62438;52.228;6.864;2022-11-25T13:43:20;10.97;85.65
74081;SHT31;62438;52.228;6.864;2022-11-25T13:45:33;10.89;85.60
74081;SHT31;62438;52.228;6.864;2022-11-25T13:47:36;10.80;85.77
74081;SHT31;62438;52.228;6.864;2022-11-25T13:49:43;10.75;86.22
74081;SHT31;62438;52.228;6.864;2022-11-25T13:51:52;10.77;85.66
74081;SHT31;62438;52.228;6.864;2022-11-25T13:53:58;10.69;86.23
74081;SHT31;62438;52.228;6.864;2022-11-25T13:56:21;10.70;86.06
74081;SHT31;62438;52.228;6.864;2022-11-25T13:58:25;10.72;86.38
74081;SHT31;62438;52.228;6.864;2022-11-25T14:02:35;10.68;86.47
74081;SHT31;62438;52.228;6.864;2022-11-25T14:04:53;10.65;86.38
74081;SHT31;62438;52.228;6.864;2022-11-25T14:07:08;10.68;86.18
74081;SHT31;62438;52.228;6.864;2022-11-25T14:09:43;10.70;86.46
74081;SHT31;62438;52.228;6.864;2022-11-25T14:17:13;10.56;87.75
74081;SHT31;62438;52.228;6.864;2022-11-25T14:24:26;10.60;86.79
74081;SHT31;62438;52.228;6.864;2022-11-25T14:26:34;10.56;87.79
74081;SHT31;62438;52.228;6.864;2022-11-25T14:30:51;10.62;87.20
74081;SHT31;62438;52.228;6.864;2022-11-25T14:32:56;10.63;87.43
74081;SHT31;62438;52.228;6.864;2022-11-25T14:37:09;10.62;87.56
74081;SHT31;62438;52.228;6.864;2022-11-25T14:39:21;10.63;87.28
74081;SHT31;62438;52.228;6.864;2022-11-25T14:41:29;10.70;87.06
74081;SHT31;62438;52.228;6.864;2022-11-25T14:43:37;10.69;87.25
74081;SHT31;62438;52.228;6.864;2022-11-25T14:45:38;10.72;87.07
74081;SHT31;62438;52.228;6.864;2022-11-25T14:47:39;10.68;87.86
74081;SHT31;62438;52.228;6.864;2022-11-25T14:49:44;10.73;86.65
74081;SHT31;62438;52.228;6.864;2022-11-25T14:51:50;10.70;86.97
74081;SHT31;62438;52.228;6.864;2022-11-25T14:53:51;10.63;87.34
74081;SHT31;62438;52.228;6.864;2022-11-25T14:55:52;10.60;87.28
74081;SHT31;62438;52.228;6.864;2022-11-25T14:57:54;10.53;87.83
74081;SHT31;62438;52.228;6.864;2022-11-25T15:00:06;10.37;88.26